createdAt,value
2022-08-25T00:01:54.243Z,16.52
2022-08-25T00:04:24.798Z,18.23
2022-08-25T00:06:53.580Z,15.48
2022-08-25T00:09:22.753Z,15.55
2022-08-25T00:11:50.030Z,16.27
2022-08-25T00:14:23.691Z,14.93
2022-08-25T00:16:50.423Z,15.45
2022-08-25T00:21:47.177Z,15.70
2022-08-25T00:24:16.763Z,12.75
2022-08-25T00:26:49.111Z,22.13
2022-08-25T00:29:15.960Z,17.75
2022-08-25T00:31:44.623Z,16.05
2022-08-25T00:34:18.117Z,17.42
2022-08-25T00:36:45.524Z,14.63
2022-08-25T00:39:12.058Z,15.43
2022-08-25T00:41:41.789Z,15.27
2022-08-25T00:44:10.952Z,15.40
2022-08-25T00:46:44.769Z,16.35
2022-08-25T00:49:25.379Z,17.73
2022-08-25T00:52:03.006Z,12.45
2022-08-25T00:54:41.013Z,13.43
2022-08-25T00:57:10.941Z,12.35
2022-08-25T00:59:37.660Z,11.70
2022-08-25T01:04:34.909Z,18.73
2022-08-25T01:07:02.411Z,15.98
2022-08-25T01:09:32.593Z,15.00
2022-08-25T01:12:00.335Z,15.65
2022-08-25T01:14:28.964Z,24.42
2022-08-25T01:16:55.488Z,16.63
2022-08-25T01:19:22.047Z,16.42
2022-08-25T01:21:51.719Z,19.00
2022-08-25T01:24:47.018Z,12.05
2022-08-25T01:27:13.714Z,18.63
2022-08-25T01:32:12.094Z,12.07
2022-08-25T01:34:41.543Z,12.77
2022-08-25T01:37:09.609Z,15.15
2022-08-25T01:39:40.942Z,15.30
2022-08-25T01:42:09.077Z,14.15
2022-08-25T01:44:38.580Z,15.80
2022-08-25T01:47:06.345Z,12.80
2022-08-25T01:49:33.250Z,12.13
2022-08-25T01:52:07.416Z,20.75
2022-08-25T01:54:34.076Z,14.27
2022-08-25T01:57:00.596Z,14.20
2022-08-25T01:59:27.638Z,13.98
2022-08-25T02:01:59.552Z,16.77
2022-08-25T02:04:29.523Z,16.23
2022-08-25T02:06:56.183Z,12.57
2022-08-25T02:09:23.031Z,15.45
2022-08-25T02:11:49.482Z,14.50
2022-08-25T02:14:20.711Z,12.65
2022-08-25T02:16:50.992Z,16.23
2022-08-25T02:19:18.900Z,14.57
2022-08-25T02:21:45.967Z,15.30
2022-08-25T02:24:13.781Z,14.93
2022-08-25T02:26:41.487Z,14.90
2022-08-25T02:29:11.207Z,18.40
2022-08-25T02:31:39.231Z,16.92
2022-08-25T02:34:07.666Z,13.13
2022-08-25T02:36:34.330Z,14.90
2022-08-25T02:39:01.136Z,14.57
2022-08-25T02:41:31.134Z,13.85
2022-08-25T02:43:59.270Z,15.05
2022-08-25T02:46:25.867Z,15.98
2022-08-25T02:48:53.406Z,11.68
2022-08-25T02:51:28.625Z,13.55
2022-08-25T02:53:55.103Z,14.93
2022-08-25T02:56:22.102Z,11.77
2022-08-25T02:58:48.693Z,17.63
2022-08-25T03:01:16.661Z,12.88
2022-08-25T03:03:45.690Z,13.65
2022-08-25T03:06:14.737Z,16.35
2022-08-25T03:08:42.200Z,13.43
2022-08-25T03:11:09.427Z,11.55
2022-08-25T03:13:36.374Z,18.90
2022-08-25T03:16:04.574Z,15.48
2022-08-25T03:18:31.565Z,14.57
2022-08-25T03:20:59.490Z,19.77
2022-08-25T03:23:26.802Z,16.15
2022-08-25T03:26:15.068Z,12.02
2022-08-25T03:28:41.810Z,14.18
2022-08-25T03:33:36.996Z,13.50
2022-08-25T03:36:05.543Z,20.38
2022-08-25T03:38:32.390Z,26.13
2022-08-25T03:43:25.431Z,22.38
2022-08-25T03:46:22.311Z,28.23
2022-08-25T03:49:26.662Z,27.27
2022-08-25T03:52:22.735Z,27.25
2022-08-25T03:54:57.573Z,31.58
2022-08-25T03:57:29.166Z,24.10
2022-08-25T04:00:12.159Z,27.02
2022-08-25T04:02:47.666Z,27.65
2022-08-25T04:05:36.931Z,32.90
2022-08-25T04:11:21.340Z,27.30
2022-08-25T04:14:19.698Z,31.60
2022-08-25T04:17:01.911Z,29.38
2022-08-25T04:19:52.280Z,30.02
2022-08-25T04:22:29.924Z,28.27
2022-08-25T04:31:24.440Z,30.13
2022-08-25T04:37:28.020Z,28.15
2022-08-25T04:40:00.571Z,30.60
2022-08-25T05:45:48.828Z,37.53
2022-08-25T05:48:15.766Z,38.00
2022-08-25T05:51:10.925Z,30.27
2022-08-25T06:05:20.470Z,41.50
2022-08-25T06:32:36.708Z,33.50
2022-08-25T07:02:14.061Z,33.67
2022-08-25T07:04:48.310Z,39.00
2022-08-25T07:07:15.078Z,40.88
2022-08-25T07:09:42.100Z,31.38
2022-08-25T07:12:11.906Z,39.10
2022-08-25T07:14:42.493Z,36.17
2022-08-25T07:17:23.674Z,38.70
2022-08-25T07:19:51.668Z,34.38
2022-08-25T07:22:25.829Z,35.65
2022-08-25T07:24:52.551Z,31.92
2022-08-25T07:29:54.292Z,37.40
2022-08-25T07:32:36.226Z,42.97
2022-08-25T07:35:43.760Z,43.17
2022-08-25T07:38:09.177Z,44.28
2022-08-25T07:40:42.926Z,43.92
2022-08-25T07:43:10.569Z,47.30
2022-08-25T07:48:56.707Z,43.08
2022-08-25T07:51:38.893Z,43.15
2022-08-25T07:55:11.039Z,38.95
2022-08-25T07:58:12.358Z,47.95
2022-08-25T08:05:11.285Z,44.55
2022-08-25T08:11:05.498Z,40.22
2022-08-25T08:14:44.981Z,45.28
2022-08-25T08:17:42.391Z,39.30
2022-08-25T08:21:25.097Z,36.15
2022-08-25T08:24:10.740Z,36.22
2022-08-25T08:26:59.364Z,39.15
2022-08-25T08:29:48.302Z,37.70
2022-08-25T08:39:17.634Z,41.50
2022-08-25T08:46:11.790Z,43.40
2022-08-25T08:49:26.749Z,39.80
2022-08-25T08:52:24.399Z,41.50
2022-08-25T08:55:21.399Z,35.97
2022-08-25T08:57:52.037Z,38.47
2022-08-25T09:00:25.817Z,47.05
2022-08-25T09:03:31.279Z,38.75
2022-08-25T09:06:06.917Z,33.10
2022-08-25T09:08:33.904Z,35.20
2022-08-25T09:11:16.522Z,40.58
2022-08-25T09:15:00.300Z,36.63
2022-08-25T09:17:44.588Z,35.97
2022-08-25T09:20:35.886Z,32.00
2022-08-25T09:23:36.688Z,41.80
2022-08-25T09:26:36.497Z,33.58
2022-08-25T09:29:19.432Z,34.42
2022-08-25T09:35:57.782Z,38.72
2022-08-25T09:38:28.111Z,37.17
2022-08-25T09:41:41.468Z,41.85
2022-08-25T09:44:34.131Z,43.63
2022-08-25T09:47:23.512Z,39.33
2022-08-25T09:50:28.881Z,50.45
2022-08-25T09:53:04.335Z,39.90
2022-08-25T09:56:12.907Z,38.13
2022-08-25T09:58:39.528Z,44.03
2022-08-25T10:01:18.844Z,42.42
2022-08-25T10:04:00.111Z,51.72
2022-08-25T10:06:32.784Z,45.97
2022-08-25T10:09:07.839Z,38.33
2022-08-25T10:12:16.065Z,39.40
2022-08-25T10:14:44.411Z,43.40
2022-08-25T10:17:27.730Z,37.20
2022-08-25T10:20:17.465Z,33.70
2022-08-25T10:22:45.646Z,33.47
2022-08-25T10:25:21.976Z,36.03
2022-08-25T10:27:58.910Z,39.22
2022-08-25T10:30:36.221Z,32.28
2022-08-25T10:33:12.714Z,24.38
2022-08-25T10:35:49.680Z,34.47
2022-08-25T10:38:36.627Z,28.08
2022-08-25T10:42:13.093Z,28.02
2022-08-25T10:45:16.603Z,27.63
2022-08-25T10:48:13.533Z,27.65
2022-08-25T10:50:49.157Z,15.60
2022-08-25T10:53:19.254Z,21.15
2022-08-25T10:55:52.826Z,21.85
2022-08-25T10:58:32.277Z,25.88
2022-08-25T11:01:15.382Z,15.00
2022-08-25T11:03:51.171Z,22.55
2022-08-25T11:07:16.529Z,19.50
2022-08-25T11:16:58.051Z,19.00
2022-08-25T11:19:49.304Z,15.10
2022-08-25T11:22:29.081Z,19.27
2022-08-25T11:24:59.999Z,21.50
2022-08-25T11:27:53.286Z,18.45
2022-08-25T11:30:28.580Z,12.73
2022-08-25T11:32:56.497Z,10.52
2022-08-25T11:35:37.416Z,11.27
2022-08-25T11:38:16.708Z,16.58
2022-08-25T11:41:17.610Z,13.95
2022-08-25T11:43:53.445Z,17.00
2022-08-25T11:46:32.104Z,18.75
2022-08-25T11:49:44.456Z,16.65
2022-08-25T11:52:34.747Z,12.90
2022-08-25T12:02:52.482Z,14.00
2022-08-25T12:05:19.342Z,15.52
2022-08-25T12:08:22.696Z,12.80
2022-08-25T12:11:07.261Z,20.13
2022-08-25T12:14:16.746Z,11.27
2022-08-25T12:17:03.244Z,20.85
2022-08-25T12:19:35.879Z,12.02
2022-08-25T12:22:03.672Z,14.70
2022-08-25T12:24:47.629Z,19.27
2022-08-25T12:27:33.858Z,16.23
2022-08-25T12:30:15.586Z,15.77
2022-08-25T12:33:11.967Z,14.90
2022-08-25T12:35:57.955Z,22.30
2022-08-25T12:38:49.604Z,24.13
2022-08-25T12:41:24.191Z,14.88
2022-08-25T12:43:54.457Z,15.35
2022-08-25T12:46:21.067Z,16.30
2022-08-25T12:51:28.803Z,17.50
2022-08-25T12:54:22.551Z,22.30
2022-08-25T13:01:00.932Z,16.95
2022-08-25T13:03:48.933Z,17.77
2022-08-25T13:06:26.778Z,17.58
2022-08-25T13:09:42.046Z,16.63
2022-08-25T13:12:25.567Z,18.23
2022-08-25T13:15:28.955Z,21.27
2022-08-25T13:18:12.475Z,11.07
2022-08-25T13:23:36.431Z,19.50
2022-08-25T13:33:33.381Z,22.10
2022-08-25T13:36:21.005Z,17.17
2022-08-25T13:41:37.289Z,15.85
2022-08-25T13:44:07.297Z,21.80
2022-08-25T13:46:40.054Z,16.15
2022-08-25T13:49:09.326Z,17.48
2022-08-25T13:51:41.390Z,17.33
2022-08-25T13:54:36.021Z,17.45
2022-08-25T13:57:24.992Z,17.80
2022-08-25T14:00:00.275Z,20.35
2022-08-25T14:02:42.281Z,14.35
2022-08-25T14:05:32.386Z,16.38
2022-08-25T14:08:25.270Z,20.17
2022-08-25T14:11:08.078Z,21.52
2022-08-25T14:13:44.746Z,15.40
2022-08-25T14:16:14.299Z,17.52
2022-08-25T14:18:49.242Z,15.68
2022-08-25T14:21:19.624Z,17.02
2022-08-25T14:23:47.231Z,20.60
2022-08-25T14:26:18.634Z,16.70
2022-08-25T14:28:46.102Z,13.52
2022-08-25T14:31:16.639Z,13.43
2022-08-25T14:33:54.973Z,14.23
2022-08-25T14:36:21.688Z,20.52
2022-08-25T14:38:54.949Z,22.15
2022-08-25T14:41:23.840Z,14.10
2022-08-25T14:43:50.559Z,18.20
2022-08-25T14:46:33.502Z,11.38
2022-08-25T14:49:05.972Z,17.50
2022-08-25T14:51:33.987Z,16.55
2022-08-25T14:54:17.748Z,15.23
2022-08-25T14:56:49.800Z,18.45
2022-08-25T17:34:58.068Z,23.60
2022-08-25T17:37:30.897Z,25.83
2022-08-25T21:06:50.681Z,18.38
2022-08-25T21:09:26.166Z,23.15
2022-08-25T21:12:09.503Z,20.40
2022-08-25T21:14:48.354Z,22.55
2022-08-25T21:17:21.210Z,28.35
2022-08-25T21:20:14.518Z,23.35
2022-08-25T21:27:19.232Z,23.95
2022-08-25T21:29:31.118Z,19.38
2022-08-25T21:32:53.317Z,21.38
2022-08-25T21:35:22.437Z,19.35
2022-08-25T21:37:53.587Z,17.45
2022-08-25T21:40:28.475Z,18.60
2022-08-25T21:42:56.469Z,18.58
2022-08-25T21:45:23.254Z,20.45
2022-08-25T21:47:50.058Z,25.08
2022-08-25T21:50:19.191Z,15.05
2022-08-25T21:52:45.949Z,31.90
2022-08-25T21:55:16.094Z,29.13
2022-08-25T21:57:47.525Z,14.32
2022-08-25T22:00:15.124Z,19.73
2022-08-25T22:02:45.930Z,20.65
2022-08-25T22:05:12.826Z,18.13
2022-08-25T22:07:42.291Z,21.67
2022-08-25T22:10:15.910Z,21.73
2022-08-25T22:12:45.092Z,18.55
2022-08-25T22:15:12.478Z,20.65
2022-08-25T22:17:40.738Z,21.58
2022-08-25T22:20:08.795Z,23.58
2022-08-25T22:22:36.480Z,18.70
2022-08-25T22:25:03.987Z,23.25
2022-08-25T22:27:33.009Z,23.25
2022-08-25T22:30:02.884Z,23.25
2022-08-25T22:32:30.511Z,24.10
2022-08-25T22:34:57.178Z,22.50
2022-08-25T22:37:23.968Z,24.30
2022-08-25T22:39:50.830Z,15.95
2022-08-25T22:42:20.415Z,18.02
2022-08-25T22:44:53.931Z,20.83
2022-08-25T22:47:20.532Z,26.23
2022-08-25T22:52:14.953Z,22.52
2022-08-25T22:54:42.035Z,17.48
2022-08-25T22:57:08.660Z,16.13
2022-08-25T23:02:02.037Z,26.50
2022-08-25T23:04:31.321Z,24.67
2022-08-25T23:06:59.001Z,19.10
2022-08-25T23:09:25.694Z,15.80
2022-08-25T23:11:52.586Z,19.00
2022-08-25T23:14:20.183Z,22.23
2022-08-25T23:16:48.460Z,19.95
2022-08-25T23:19:16.942Z,14.80
2022-08-25T23:22:02.585Z,23.73
2022-08-25T23:24:30.867Z,27.58
2022-08-25T23:26:59.312Z,21.67
2022-08-25T23:29:26.342Z,21.10
2022-08-25T23:31:53.665Z,29.55
2022-08-25T23:34:22.751Z,19.88
2022-08-25T23:36:50.968Z,16.98
2022-08-25T23:39:18.134Z,19.58
2022-08-25T23:41:44.842Z,18.38
2022-08-25T23:44:17.006Z,23.52
2022-08-25T23:46:44.928Z,21.30
2022-08-25T23:49:12.391Z,21.23
2022-08-25T23:51:40.175Z,24.35
2022-08-25T23:54:10.864Z,20.52
2022-08-25T23:56:44.434Z,22.40
2022-08-25T23:59:11.820Z,17.27
